createdAt,value
2018-11-06T00:00:29.944Z,4.37
2018-11-06T00:03:03.168Z,4.30
2018-11-06T00:05:30.819Z,4.13
2018-11-06T00:07:58.461Z,4.63
2018-11-06T00:10:26.084Z,5.20
2018-11-06T00:12:53.728Z,4.93
2018-11-06T00:15:21.568Z,5.60
2018-11-06T00:17:49.227Z,5.50
2018-11-06T00:20:16.829Z,6.07
2018-11-06T00:22:44.438Z,7.13
2018-11-06T00:25:13.099Z,6.27
2018-11-06T00:27:40.961Z,6.23
2018-11-06T00:30:10.392Z,5.80
2018-11-06T00:32:38.568Z,5.60
2018-11-06T00:35:07.411Z,5.40
2018-11-06T00:37:35.114Z,5.87
2018-11-06T00:40:02.892Z,5.13
2018-11-06T00:42:30.552Z,7.00
2018-11-06T00:44:58.216Z,5.77
2018-11-06T00:47:25.960Z,6.30
2018-11-06T00:49:53.613Z,5.37
2018-11-06T00:52:21.307Z,4.97
2018-11-06T00:54:48.967Z,5.20
2018-11-06T00:57:16.575Z,5.90
2018-11-06T00:59:44.495Z,5.30
2018-11-06T01:02:12.100Z,6.03
2018-11-06T01:04:39.707Z,4.57
2018-11-06T01:07:07.367Z,5.43
2018-11-06T01:09:34.964Z,4.20
2018-11-06T01:12:02.600Z,3.97
2018-11-06T01:14:30.232Z,4.67
2018-11-06T01:16:58.072Z,5.33
2018-11-06T01:19:25.700Z,4.20
2018-11-06T01:21:53.544Z,5.57
2018-11-06T01:24:21.120Z,5.30
2018-11-06T01:26:48.783Z,4.63
2018-11-06T01:29:16.378Z,4.50
2018-11-06T01:31:43.967Z,4.60
2018-11-06T01:34:11.588Z,4.20
2018-11-06T01:36:39.196Z,5.50
2018-11-06T01:39:08.560Z,4.33
2018-11-06T01:41:36.199Z,4.20
2018-11-06T01:44:03.973Z,4.20
2018-11-06T01:46:31.542Z,4.10
2018-11-06T01:48:59.230Z,3.70
2018-11-06T01:51:26.802Z,4.50
2018-11-06T01:53:54.426Z,4.00
2018-11-06T01:56:22.014Z,4.07
2018-11-06T01:58:49.623Z,3.57
2018-11-06T02:01:17.449Z,4.33
2018-11-06T02:03:45.059Z,4.70
2018-11-06T02:06:12.651Z,5.23
2018-11-06T02:08:40.328Z,3.93
2018-11-06T02:11:07.936Z,4.07
2018-11-06T02:13:35.739Z,4.07
2018-11-06T02:16:03.358Z,3.30
2018-11-06T02:18:30.963Z,4.70
2018-11-06T02:20:58.819Z,5.50
2018-11-06T02:23:26.482Z,5.43
2018-11-06T02:25:54.044Z,5.27
2018-11-06T02:28:21.645Z,4.50
2018-11-06T02:30:49.316Z,4.00
2018-11-06T02:33:17.098Z,5.27
2018-11-06T02:35:44.973Z,5.03
2018-11-06T02:40:48.758Z,3.97
2018-11-06T02:43:16.412Z,3.97
2018-11-06T02:45:44.339Z,4.77
2018-11-06T02:48:11.956Z,4.30
2018-11-06T02:50:39.548Z,4.73
2018-11-06T02:53:07.175Z,4.90
2018-11-06T02:55:34.809Z,4.57
2018-11-06T02:58:02.430Z,5.13
2018-11-06T03:00:30.074Z,4.83
2018-11-06T03:02:57.971Z,6.97
2018-11-06T03:05:25.623Z,4.90
2018-11-06T03:07:53.272Z,5.37
2018-11-06T03:10:21.283Z,5.70
2018-11-06T03:12:48.829Z,5.03
2018-11-06T03:15:16.436Z,4.50
2018-11-06T03:17:44.090Z,4.20
2018-11-06T03:20:12.279Z,3.97
2018-11-06T03:22:40.290Z,5.77
2018-11-06T03:25:08.294Z,5.20
2018-11-06T03:27:35.873Z,5.30
2018-11-06T03:30:03.863Z,5.30
2018-11-06T03:32:31.446Z,6.23
2018-11-06T03:34:59.016Z,5.53
2018-11-06T03:37:26.573Z,5.03
2018-11-06T03:39:54.160Z,5.20
2018-11-06T03:42:21.735Z,5.43
2018-11-06T03:44:49.300Z,5.00
2018-11-06T03:47:16.872Z,5.57
2018-11-06T03:49:44.459Z,5.87
2018-11-06T03:52:12.008Z,5.13
2018-11-06T03:54:39.598Z,5.00
2018-11-06T03:57:07.155Z,5.63
2018-11-06T03:59:34.894Z,6.93
2018-11-06T04:02:02.456Z,5.30
2018-11-06T04:04:30.033Z,5.00
2018-11-06T04:06:57.620Z,6.30
2018-11-06T04:09:25.219Z,6.07
2018-11-06T04:11:52.768Z,6.60
2018-11-06T04:14:20.368Z,6.17
2018-11-06T04:16:47.993Z,5.67
2018-11-06T04:19:15.605Z,6.50
2018-11-06T04:21:43.208Z,4.87
2018-11-06T04:24:12.180Z,4.80
2018-11-06T04:26:40.059Z,4.40
2018-11-06T04:29:08.336Z,5.13
2018-11-06T04:31:36.797Z,4.40
2018-11-06T04:34:04.962Z,4.20
2018-11-06T04:36:32.572Z,3.80
2018-11-06T04:39:00.179Z,3.87
2018-11-06T04:41:28.064Z,5.70
2018-11-06T04:43:55.691Z,5.97
2018-11-06T04:46:23.711Z,5.23
2018-11-06T04:48:51.881Z,5.73
2018-11-06T04:51:20.061Z,5.60
2018-11-06T04:53:47.647Z,5.20
2018-11-06T04:56:15.330Z,5.90
2018-11-06T04:58:42.914Z,4.97
2018-11-06T05:01:10.822Z,4.77
2018-11-06T05:03:43.978Z,4.57
2018-11-06T05:06:11.639Z,5.90
2018-11-06T05:08:39.504Z,4.57
2018-11-06T05:11:07.111Z,4.70
2018-11-06T05:13:34.807Z,5.03
2018-11-06T05:16:02.415Z,5.30
2018-11-06T05:18:30.016Z,5.83
2018-11-06T05:20:57.940Z,6.97
2018-11-06T05:23:25.528Z,6.23
2018-11-06T05:25:53.159Z,5.50
2018-11-06T05:28:20.731Z,5.97
2018-11-06T05:30:48.353Z,5.00
2018-11-06T05:33:16.215Z,6.00
2018-11-06T05:35:43.791Z,4.43
2018-11-06T05:38:11.370Z,4.33
2018-11-06T05:40:49.205Z,5.47
2018-11-06T05:43:16.807Z,6.63
2018-11-06T05:45:44.520Z,7.00
2018-11-06T05:48:11.982Z,6.53
2018-11-06T05:50:39.567Z,6.67
2018-11-06T05:53:07.568Z,6.43
2018-11-06T05:55:35.188Z,6.37
2018-11-06T05:58:02.795Z,4.90
2018-11-06T06:00:30.596Z,5.37
2018-11-06T06:02:58.303Z,5.17
2018-11-06T06:05:25.939Z,4.97
2018-11-06T06:07:53.549Z,5.60
2018-11-06T06:10:21.214Z,5.83
2018-11-06T06:12:48.829Z,4.80
2018-11-06T06:15:16.551Z,4.90
2018-11-06T06:17:44.183Z,5.60
2018-11-06T06:20:11.745Z,5.77
2018-11-06T06:22:39.419Z,5.20
2018-11-06T06:25:07.789Z,4.90
2018-11-06T06:27:35.416Z,4.70
2018-11-06T06:30:03.559Z,5.67
2018-11-06T06:32:31.148Z,4.80
2018-11-06T06:34:58.774Z,5.23
2018-11-06T06:37:26.920Z,6.00
2018-11-06T06:39:56.200Z,5.80
2018-11-06T06:42:23.819Z,5.40
2018-11-06T06:44:51.452Z,6.13
2018-11-06T06:47:19.026Z,5.90
2018-11-06T06:49:46.744Z,5.73
2018-11-06T06:52:14.461Z,5.97
2018-11-06T06:54:42.304Z,7.20
2018-11-06T06:57:09.996Z,7.33
2018-11-06T06:59:37.728Z,7.07
2018-11-06T07:02:05.799Z,5.90
2018-11-06T07:04:33.498Z,7.37
2018-11-06T07:07:01.221Z,7.20
2018-11-06T07:09:28.924Z,6.40
2018-11-06T07:11:56.680Z,7.10
2018-11-06T07:14:24.399Z,6.43
2018-11-06T07:16:52.342Z,5.50
2018-11-06T07:19:20.257Z,5.33
2018-11-06T07:21:47.927Z,6.00
2018-11-06T07:24:15.676Z,5.93
2018-11-06T07:26:43.389Z,5.40
2018-11-06T07:29:11.166Z,5.50
2018-11-06T07:31:38.903Z,4.47
2018-11-06T07:34:06.673Z,4.07
2018-11-06T07:36:34.391Z,4.70
2018-11-06T07:39:02.272Z,5.20
2018-11-06T07:41:29.964Z,4.93
2018-11-06T07:43:57.699Z,4.20
2018-11-06T07:46:25.455Z,4.40
2018-11-06T07:48:53.148Z,3.97
2018-11-06T07:51:20.896Z,3.20
2018-11-06T07:53:48.826Z,3.73
2018-11-06T07:56:16.562Z,3.60
2018-11-06T07:58:44.219Z,4.13
2018-11-06T08:01:11.934Z,4.27
2018-11-06T08:03:39.840Z,4.00
2018-11-06T08:06:07.615Z,4.00
2018-11-06T08:08:35.343Z,3.43
2018-11-06T08:11:03.005Z,4.37
2018-11-06T08:13:30.668Z,3.90
2018-11-06T08:15:58.368Z,3.90
2018-11-06T08:18:26.057Z,3.40
2018-11-06T08:20:53.749Z,3.03
2018-11-06T08:23:21.460Z,2.73
2018-11-06T08:25:49.184Z,2.80
2018-11-06T08:28:16.861Z,2.70
2018-11-06T08:30:44.708Z,2.30
2018-11-06T08:33:12.205Z,2.20
2018-11-06T08:35:39.934Z,2.10
2018-11-06T08:38:07.596Z,2.30
2018-11-06T08:40:35.310Z,2.03
2018-11-06T08:43:03.041Z,2.60
2018-11-06T08:45:30.769Z,3.03
2018-11-06T08:47:58.511Z,3.43
2018-11-06T08:50:26.200Z,4.33
2018-11-06T08:52:53.798Z,4.00
2018-11-06T08:55:21.630Z,3.90
2018-11-06T08:57:49.355Z,4.65
2018-11-06T09:00:17.994Z,4.80
2018-11-06T09:02:46.768Z,3.80
2018-11-06T09:05:15.387Z,3.50
2018-11-06T09:07:43.321Z,3.37
2018-11-06T09:10:12.208Z,3.40
2018-11-06T09:12:40.254Z,3.07
2018-11-06T09:15:10.707Z,3.00
2018-11-06T09:17:38.702Z,2.90
2018-11-06T09:20:07.435Z,3.37
2018-11-06T09:22:35.387Z,3.20
2018-11-06T09:25:03.265Z,3.50
2018-11-06T09:27:30.933Z,3.30
2018-11-06T09:29:58.633Z,3.20
2018-11-06T09:32:26.351Z,3.67
2018-11-06T09:34:53.975Z,3.67
2018-11-06T09:37:21.621Z,3.02
2018-11-06T09:39:49.284Z,2.47
2018-11-06T09:42:16.956Z,2.40
2018-11-06T09:44:44.607Z,2.20
2018-11-06T09:47:12.309Z,2.47
2018-11-06T09:49:39.936Z,2.27
2018-11-06T09:52:07.900Z,2.60
2018-11-06T09:54:35.593Z,2.45
2018-11-06T09:57:03.404Z,2.10
2018-11-06T09:59:31.049Z,2.15
2018-11-06T10:01:58.728Z,1.85
2018-11-06T10:04:26.360Z,3.35
2018-11-06T10:06:54.689Z,3.70
2018-11-06T10:09:22.061Z,3.60
2018-11-06T10:11:49.696Z,3.27
2018-11-06T10:14:17.329Z,2.62
2018-11-06T10:16:44.976Z,2.95
2018-11-06T10:19:12.660Z,3.10
2018-11-06T10:21:40.356Z,4.92
2018-11-06T10:24:08.071Z,7.00
2018-11-06T10:26:35.695Z,7.22
2018-11-06T10:29:03.633Z,6.62
2018-11-06T10:31:31.909Z,6.00
2018-11-06T10:33:59.860Z,5.03
2018-11-06T10:36:27.548Z,4.67
2018-11-06T10:38:55.365Z,5.30
2018-11-06T10:41:23.072Z,4.72
2018-11-06T10:43:50.982Z,4.87
2018-11-06T10:46:18.887Z,6.42
2018-11-06T10:48:46.545Z,7.40
2018-11-06T10:51:14.200Z,8.28
2018-11-06T10:53:41.905Z,8.23
2018-11-06T10:56:09.567Z,8.50
2018-11-06T10:58:37.245Z,7.20
2018-11-06T11:01:11.268Z,7.72
2018-11-06T11:03:40.837Z,8.50
2018-11-06T11:06:08.763Z,7.45
2018-11-06T11:08:36.439Z,8.05
2018-11-06T11:11:04.137Z,7.95
2018-11-06T11:13:31.853Z,7.33
2018-11-06T11:15:59.484Z,8.00
2018-11-06T11:18:27.192Z,6.95
2018-11-06T11:20:54.870Z,8.08
2018-11-06T11:23:22.785Z,8.03
2018-11-06T11:25:50.542Z,7.42
2018-11-06T11:28:18.145Z,6.90
2018-11-06T11:30:45.797Z,7.22
2018-11-06T11:33:13.456Z,9.45
2018-11-06T11:35:41.328Z,7.53
2018-11-06T11:38:09.061Z,6.80
2018-11-06T11:40:36.712Z,6.10
2018-11-06T11:43:04.744Z,6.15
2018-11-06T11:45:32.381Z,8.55
2018-11-06T11:48:00.421Z,7.70
2018-11-06T11:50:28.108Z,7.08
2018-11-06T11:52:55.900Z,6.03
2018-11-06T11:55:23.527Z,6.55
2018-11-06T11:57:51.278Z,6.12
2018-11-06T12:00:20.136Z,6.03
2018-11-06T12:02:47.872Z,7.37
2018-11-06T12:05:15.596Z,6.17
2018-11-06T12:07:43.329Z,5.62
2018-11-06T12:10:11.984Z,4.97
2018-11-06T12:12:39.844Z,4.60
2018-11-06T12:15:09.702Z,4.55
2018-11-06T12:17:37.408Z,4.30
2018-11-06T12:20:05.384Z,3.58
2018-11-06T12:22:33.058Z,3.60
2018-11-06T12:25:00.920Z,3.55
2018-11-06T12:27:28.483Z,4.40
2018-11-06T12:29:56.168Z,4.00
2018-11-06T12:32:23.867Z,3.60
2018-11-06T12:34:51.496Z,3.80
2018-11-06T12:37:19.147Z,3.35
2018-11-06T12:39:46.752Z,3.40
2018-11-06T12:42:14.472Z,2.87
2018-11-06T12:44:42.675Z,3.40
2018-11-06T12:47:10.373Z,2.87
2018-11-06T12:49:38.020Z,2.80
2018-11-06T12:52:05.940Z,4.30
2018-11-06T12:54:33.568Z,4.80
2018-11-06T12:57:01.204Z,5.67
2018-11-06T12:59:28.853Z,5.10
2018-11-06T13:01:56.587Z,4.90
2018-11-06T13:04:24.215Z,5.33
2018-11-06T13:06:51.876Z,6.17
2018-11-06T13:09:19.640Z,5.90
2018-11-06T13:11:47.495Z,5.62
2018-11-06T13:14:15.141Z,5.20
2018-11-06T13:16:42.867Z,4.62
2018-11-06T13:19:10.657Z,5.75
2018-11-06T13:21:38.395Z,4.90
2018-11-06T13:24:06.146Z,5.27
2018-11-06T13:26:33.947Z,5.92
2018-11-06T13:29:01.477Z,7.05
2018-11-06T13:31:29.168Z,6.33
2018-11-06T13:33:56.892Z,6.15
2018-11-06T13:36:24.537Z,4.80
2018-11-06T13:38:52.171Z,4.50
2018-11-06T13:41:19.944Z,4.40
2018-11-06T13:43:47.842Z,4.67
2018-11-06T13:46:15.352Z,3.80
2018-11-06T13:48:43.028Z,3.72
2018-11-06T13:51:10.740Z,5.15
2018-11-06T13:53:38.545Z,5.40
2018-11-06T13:56:06.273Z,5.42
2018-11-06T13:58:33.920Z,5.47
2018-11-06T14:01:01.601Z,5.03
2018-11-06T14:03:29.326Z,5.10
2018-11-06T14:05:57.016Z,5.70
2018-11-06T14:08:24.684Z,5.37
2018-11-06T14:10:52.628Z,5.30
2018-11-06T14:13:20.374Z,4.72
2018-11-06T14:15:48.005Z,4.00
2018-11-06T14:18:15.688Z,3.50
2018-11-06T14:20:43.333Z,3.60
2018-11-06T14:23:10.990Z,3.40
2018-11-06T14:25:38.650Z,4.33
2018-11-06T14:28:06.340Z,3.77
2018-11-06T14:30:34.006Z,3.67
2018-11-06T14:33:01.644Z,3.90
2018-11-06T14:35:29.278Z,3.25
2018-11-06T14:37:57.021Z,4.10
2018-11-06T14:40:24.905Z,4.10
2018-11-06T14:42:52.763Z,4.33
2018-11-06T14:45:20.384Z,3.60
2018-11-06T14:47:48.057Z,3.45
2018-11-06T14:50:15.769Z,2.95
2018-11-06T14:52:43.440Z,2.80
2018-11-06T14:55:12.310Z,3.35
2018-11-06T14:57:40.128Z,3.37
2018-11-06T15:00:12.545Z,2.90
2018-11-06T15:02:40.365Z,3.10
2018-11-06T15:05:08.060Z,3.02
2018-11-06T15:07:35.728Z,3.17
2018-11-06T15:10:03.809Z,3.37
2018-11-06T15:12:31.469Z,3.30
2018-11-06T15:14:59.343Z,3.17
2018-11-06T15:17:29.843Z,3.47
2018-11-06T15:19:57.597Z,4.47
2018-11-06T15:22:25.311Z,3.80
2018-11-06T15:24:52.921Z,3.65
2018-11-06T15:27:20.563Z,3.75
2018-11-06T15:29:48.205Z,3.40
2018-11-06T15:32:15.969Z,4.10
2018-11-06T15:34:43.633Z,3.80
2018-11-06T15:37:11.412Z,3.27
2018-11-06T15:39:39.220Z,3.17
2018-11-06T15:42:06.980Z,2.75
2018-11-06T15:44:34.557Z,3.37
2018-11-06T15:47:02.292Z,2.87
2018-11-06T15:49:29.936Z,2.98
2018-11-06T15:51:57.640Z,3.05
2018-11-06T15:54:25.368Z,2.80
2018-11-06T15:56:53.009Z,2.72
2018-11-06T15:59:20.691Z,2.77
2018-11-06T16:01:48.435Z,2.52
2018-11-06T16:04:16.065Z,2.90
2018-11-06T16:06:43.700Z,3.00
2018-11-06T16:09:11.385Z,3.00
2018-11-06T16:11:39.080Z,2.43
2018-11-06T16:14:06.818Z,3.00
2018-11-06T16:16:34.457Z,3.00
2018-11-06T16:19:02.405Z,3.20
2018-11-06T16:21:30.061Z,3.07
2018-11-06T16:23:57.799Z,3.97
2018-11-06T16:26:25.465Z,4.63
2018-11-06T16:28:53.156Z,5.60
2018-11-06T16:31:21.047Z,5.40
2018-11-06T16:33:48.941Z,5.50
2018-11-06T16:36:16.662Z,4.67
2018-11-06T16:38:44.342Z,4.27
2018-11-06T16:41:12.156Z,4.30
2018-11-06T16:43:39.760Z,4.93
2018-11-06T16:46:08.038Z,5.20
2018-11-06T16:48:36.085Z,5.00
2018-11-06T16:51:03.764Z,5.10
2018-11-06T16:53:31.433Z,5.00
2018-11-06T16:55:59.111Z,5.67
2018-11-06T16:58:26.910Z,5.43
2018-11-06T17:00:54.602Z,4.60
2018-11-06T17:03:22.198Z,5.07
2018-11-06T17:05:49.861Z,5.57
2018-11-06T17:08:17.757Z,5.47
2018-11-06T17:10:45.424Z,5.47
2018-11-06T17:13:13.156Z,4.50
2018-11-06T17:15:40.930Z,4.00
2018-11-06T17:18:08.835Z,3.93
2018-11-06T17:20:36.472Z,3.40
2018-11-06T17:23:04.387Z,3.50
2018-11-06T17:25:32.091Z,3.17
2018-11-06T17:27:59.999Z,4.30
2018-11-06T17:30:28.064Z,4.63
2018-11-06T17:32:55.746Z,4.43
2018-11-06T17:35:23.379Z,3.77
2018-11-06T17:37:51.015Z,4.13
2018-11-06T17:40:20.350Z,4.50
2018-11-06T17:42:47.957Z,4.53
2018-11-06T17:45:18.944Z,3.83
2018-11-06T17:47:46.515Z,6.13
2018-11-06T17:50:14.971Z,5.93
2018-11-06T17:52:43.060Z,5.37
2018-11-06T17:55:14.369Z,5.43
2018-11-06T17:57:42.244Z,4.80
2018-11-06T18:00:18.310Z,4.03
2018-11-06T18:02:45.991Z,4.50
2018-11-06T18:05:14.415Z,4.67
2018-11-06T18:07:42.434Z,4.70
2018-11-06T18:10:11.847Z,8.20
2018-11-06T18:12:39.462Z,12.37
2018-11-06T18:15:07.526Z,17.30
2018-11-06T18:17:35.321Z,15.93
2018-11-06T18:20:02.952Z,14.57
2018-11-06T18:22:30.660Z,12.97
2018-11-06T18:24:58.293Z,11.27
2018-11-06T18:27:25.908Z,10.00
2018-11-06T18:29:53.516Z,9.53
2018-11-06T18:32:21.182Z,9.10
2018-11-06T18:34:48.745Z,8.47
2018-11-06T18:37:16.293Z,7.60
2018-11-06T18:39:43.873Z,7.37
2018-11-06T18:42:11.468Z,6.83
2018-11-06T18:44:39.063Z,6.37
2018-11-06T18:47:06.628Z,6.90
2018-11-06T18:49:34.316Z,7.83
2018-11-06T18:52:01.877Z,6.63
2018-11-06T18:54:29.504Z,6.07
2018-11-06T18:56:57.283Z,6.40
2018-11-06T18:59:24.856Z,7.00
2018-11-06T19:01:52.400Z,5.83
2018-11-06T19:04:20.133Z,5.20
2018-11-06T19:06:47.755Z,4.30
2018-11-06T19:09:15.558Z,4.63
2018-11-06T19:11:43.192Z,4.20
2018-11-06T19:14:11.549Z,4.27
2018-11-06T19:16:39.429Z,4.90
2018-11-06T19:19:07.170Z,4.40
2018-11-06T19:21:34.902Z,4.13
2018-11-06T19:24:02.730Z,4.10
2018-11-06T19:26:30.292Z,3.47
2018-11-06T19:28:58.234Z,3.60
2018-11-06T19:31:25.901Z,3.80
2018-11-06T19:33:53.636Z,5.87
2018-11-06T19:36:21.330Z,5.77
2018-11-06T19:38:49.328Z,5.73
2018-11-06T19:41:17.266Z,4.73
2018-11-06T19:43:44.847Z,4.87
2018-11-06T19:46:12.532Z,8.30
2018-11-06T19:48:40.182Z,6.70
2018-11-06T19:51:07.740Z,6.10
2018-11-06T19:53:35.917Z,6.67
2018-11-06T19:56:03.721Z,5.90
2018-11-06T19:58:31.297Z,6.07
2018-11-06T20:00:59.438Z,5.73
2018-11-06T20:03:27.151Z,6.27
2018-11-06T20:05:54.992Z,5.73
2018-11-06T20:08:22.758Z,6.43
2018-11-06T20:10:50.381Z,5.60
2018-11-06T20:13:18.203Z,5.37
2018-11-06T20:15:45.812Z,4.87
2018-11-06T20:18:13.413Z,5.30
2018-11-06T20:20:41.237Z,5.20
2018-11-06T20:23:08.979Z,5.03
2018-11-06T20:25:36.717Z,6.23
2018-11-06T20:28:04.718Z,5.80
2018-11-06T20:30:32.384Z,6.07
2018-11-06T20:33:00.036Z,6.30
2018-11-06T20:35:27.842Z,6.70
2018-11-06T20:37:55.610Z,7.60
2018-11-06T20:40:24.562Z,6.20
2018-11-06T20:42:52.943Z,6.03
2018-11-06T20:45:21.061Z,5.87
2018-11-06T20:47:49.065Z,7.60
2018-11-06T20:50:24.688Z,8.10
2018-11-06T20:52:52.423Z,7.50
2018-11-06T20:55:20.346Z,7.30
2018-11-06T20:57:47.947Z,8.00
2018-11-06T21:00:23.783Z,8.23
2018-11-06T21:02:52.716Z,7.67
2018-11-06T21:05:20.425Z,7.30
2018-11-06T21:07:48.768Z,7.07
2018-11-06T21:10:18.317Z,9.13
2018-11-06T21:12:46.548Z,7.03
2018-11-06T21:15:14.184Z,7.00
2018-11-06T21:17:41.955Z,6.73
2018-11-06T21:20:10.847Z,6.17
2018-11-06T21:22:38.763Z,6.33
2018-11-06T21:25:07.315Z,7.07
2018-11-06T21:27:35.085Z,7.00
2018-11-06T21:30:03.022Z,6.40
2018-11-06T21:32:30.905Z,8.10
2018-11-06T21:34:58.824Z,7.60
2018-11-06T21:37:26.536Z,7.47
2018-11-06T21:39:54.380Z,7.07
2018-11-06T21:42:22.068Z,6.40
2018-11-06T21:44:49.951Z,6.20
2018-11-06T21:47:17.595Z,5.90
2018-11-06T21:49:45.299Z,5.10
2018-11-06T21:52:13.204Z,4.67
2018-11-06T21:54:41.161Z,4.63
2018-11-06T21:57:08.800Z,4.30
2018-11-06T21:59:36.559Z,4.83
2018-11-06T22:02:04.538Z,4.37
2018-11-06T22:04:32.455Z,4.50
2018-11-06T22:07:00.213Z,4.50
2018-11-06T22:09:28.033Z,4.67
2018-11-06T22:11:55.765Z,3.90
2018-11-06T22:14:23.755Z,4.23
2018-11-06T22:16:51.623Z,4.73
2018-11-06T22:19:19.517Z,5.43
2018-11-06T22:21:47.319Z,5.70
2018-11-06T22:24:15.105Z,4.73
2018-11-06T22:26:43.695Z,5.27
2018-11-06T22:29:11.533Z,4.90
2018-11-06T22:31:39.828Z,4.67
2018-11-06T22:34:10.844Z,4.77
2018-11-06T22:36:38.556Z,4.23
2018-11-06T22:39:07.852Z,4.20
2018-11-06T22:41:35.655Z,4.53
2018-11-06T22:44:03.504Z,4.90
2018-11-06T22:46:31.298Z,5.50
2018-11-06T22:48:59.044Z,4.90
2018-11-06T22:51:26.734Z,7.57
2018-11-06T22:53:54.535Z,6.60
2018-11-06T22:56:22.179Z,7.17
2018-11-06T22:58:49.805Z,6.00
2018-11-06T23:01:22.951Z,6.63
2018-11-06T23:03:50.975Z,5.57
2018-11-06T23:06:19.463Z,4.60
2018-11-06T23:08:46.999Z,5.13
2018-11-06T23:11:14.629Z,5.03
2018-11-06T23:13:42.206Z,4.70
2018-11-06T23:16:09.883Z,4.43
2018-11-06T23:18:37.483Z,4.30
2018-11-06T23:21:05.224Z,4.27
2018-11-06T23:23:32.901Z,4.50
2018-11-06T23:26:00.557Z,4.60
2018-11-06T23:28:28.390Z,5.17
2018-11-06T23:30:56.017Z,4.30
2018-11-06T23:33:24.025Z,5.07
2018-11-06T23:35:51.800Z,4.27
2018-11-06T23:38:19.361Z,5.80
2018-11-06T23:40:46.988Z,4.97
2018-11-06T23:43:14.581Z,4.83
2018-11-06T23:45:42.278Z,4.60
2018-11-06T23:48:09.912Z,4.80
2018-11-06T23:50:37.751Z,5.10
2018-11-06T23:53:05.723Z,4.43
2018-11-06T23:55:33.634Z,4.67
2018-11-06T23:58:01.257Z,4.10
